createdAt,value
2023-01-21T00:00:01.761Z,78.24
2023-01-21T00:00:14.248Z,77.98
2023-01-21T00:00:26.377Z,78.10
2023-01-21T00:00:38.547Z,78.23
2023-01-21T00:00:50.497Z,78.54
2023-01-21T00:01:02.476Z,77.97
2023-01-21T00:01:16.897Z,78.41
2023-01-21T00:01:28.910Z,77.88
2023-01-21T00:01:40.877Z,78.37
2023-01-21T00:01:52.860Z,78.06
2023-01-21T00:02:05.459Z,77.69
2023-01-21T00:02:17.490Z,77.75
2023-01-21T00:02:29.496Z,77.81
2023-01-21T00:02:41.605Z,78.06
2023-01-21T00:02:53.616Z,77.96
2023-01-21T00:03:05.670Z,77.96
2023-01-21T00:03:17.705Z,77.75
2023-01-21T00:03:29.739Z,77.60
2023-01-21T00:03:41.993Z,77.69
2023-01-21T00:03:54.001Z,77.29
2023-01-21T00:04:05.962Z,77.80
2023-01-21T00:04:17.966Z,76.61
2023-01-21T00:04:30.031Z,76.45
2023-01-21T00:04:42.169Z,76.91
2023-01-21T00:04:54.104Z,76.67
2023-01-21T00:05:06.377Z,76.96
2023-01-21T00:05:18.321Z,76.52
2023-01-21T00:05:30.261Z,76.98
2023-01-21T00:05:42.207Z,76.55
2023-01-21T00:05:54.282Z,76.82
2023-01-21T00:06:06.848Z,77.04
2023-01-21T00:06:18.834Z,76.46
2023-01-21T00:06:30.745Z,76.31
2023-01-21T00:06:42.761Z,76.80
2023-01-21T00:06:54.682Z,76.74
2023-01-21T00:07:07.698Z,76.66
2023-01-21T00:07:19.672Z,76.40
2023-01-21T00:07:31.603Z,76.87
2023-01-21T00:07:43.555Z,76.52
2023-01-21T00:07:55.517Z,76.32
2023-01-21T00:08:07.455Z,76.43
2023-01-21T00:08:19.474Z,76.13
2023-01-21T00:08:31.405Z,76.62
2023-01-21T00:08:43.611Z,76.43
2023-01-21T00:08:59.241Z,76.57
2023-01-21T00:09:11.546Z,76.45
2023-01-21T00:09:23.535Z,76.54
2023-01-21T00:09:35.518Z,76.66
2023-01-21T00:09:47.466Z,76.45
2023-01-21T00:09:59.375Z,76.55
2023-01-21T00:10:11.353Z,76.14
2023-01-21T00:10:23.455Z,76.62
2023-01-21T00:10:35.433Z,76.67
2023-01-21T00:10:47.398Z,76.42
2023-01-21T00:11:10.556Z,76.31
2023-01-21T00:11:22.543Z,76.38
2023-01-21T00:11:34.578Z,76.82
2023-01-21T00:11:49.298Z,76.86
2023-01-21T00:12:04.112Z,76.66
2023-01-21T00:12:16.074Z,76.61
2023-01-21T00:12:28.020Z,76.95
2023-01-21T00:12:39.968Z,76.47
2023-01-21T00:12:51.981Z,76.53
2023-01-21T00:13:03.968Z,76.87
2023-01-21T00:13:16.501Z,76.37
2023-01-21T00:13:28.434Z,76.67
2023-01-21T00:13:41.472Z,76.49
2023-01-21T00:13:53.465Z,76.39
2023-01-21T00:14:05.436Z,76.43
2023-01-21T00:14:17.483Z,76.83
2023-01-21T00:14:30.155Z,76.38
2023-01-21T00:14:42.078Z,76.53
2023-01-21T00:14:54.033Z,76.76
2023-01-21T00:15:06.465Z,76.72
2023-01-21T00:15:18.448Z,76.88
2023-01-21T00:15:30.430Z,76.63
2023-01-21T00:15:42.818Z,76.95
2023-01-21T00:15:55.053Z,76.69
2023-01-21T00:16:07.804Z,76.64
2023-01-21T00:16:19.893Z,76.70
2023-01-21T00:16:31.839Z,76.49
2023-01-21T00:16:43.765Z,76.58
2023-01-21T00:16:55.980Z,76.30
2023-01-21T00:17:07.968Z,76.69
2023-01-21T00:17:19.883Z,76.54
2023-01-21T00:17:37.961Z,76.73
2023-01-21T00:17:52.814Z,76.66
2023-01-21T00:18:04.818Z,76.48
2023-01-21T00:18:16.755Z,76.55
2023-01-21T00:18:30.107Z,76.65
2023-01-21T00:18:42.580Z,76.14
2023-01-21T00:18:56.502Z,76.16
2023-01-21T00:19:08.486Z,76.36
2023-01-21T00:19:20.568Z,76.60
2023-01-21T00:19:32.543Z,76.26
2023-01-21T00:19:44.507Z,76.37
2023-01-21T00:19:56.475Z,76.36
2023-01-21T00:20:09.173Z,76.47
2023-01-21T00:20:21.415Z,76.37
2023-01-21T00:20:33.544Z,76.39
2023-01-21T00:20:45.987Z,76.42
2023-01-21T00:20:57.920Z,75.92
2023-01-21T00:21:10.147Z,76.02
2023-01-21T00:21:22.589Z,76.00
2023-01-21T00:21:34.495Z,76.21
2023-01-21T00:21:46.592Z,75.80
2023-01-21T00:21:58.562Z,75.95
2023-01-21T00:22:10.609Z,76.41
2023-01-21T00:22:22.549Z,76.29
2023-01-21T00:22:34.514Z,75.93
2023-01-21T00:22:46.425Z,75.96
2023-01-21T00:22:58.541Z,75.63
2023-01-21T00:23:10.882Z,75.55
2023-01-21T00:23:22.988Z,75.51
2023-01-21T00:23:35.040Z,75.64
2023-01-21T00:23:47.025Z,75.72
2023-01-21T00:23:59.055Z,75.34
2023-01-21T00:24:11.061Z,75.85
2023-01-21T00:24:24.377Z,75.40
2023-01-21T00:24:36.308Z,75.87
2023-01-21T00:24:48.208Z,75.53
2023-01-21T00:25:00.153Z,75.67
2023-01-21T00:25:12.135Z,76.01
2023-01-21T00:25:24.063Z,75.73
2023-01-21T00:25:35.956Z,75.65
2023-01-21T00:25:47.936Z,75.55
2023-01-21T00:26:01.824Z,75.58
2023-01-21T00:26:13.856Z,75.64
2023-01-21T00:26:25.932Z,75.55
2023-01-21T00:26:37.962Z,75.82
2023-01-21T00:26:49.889Z,75.98
2023-01-21T00:27:01.783Z,75.97
2023-01-21T00:27:13.717Z,76.03
2023-01-21T00:27:25.710Z,75.50
2023-01-21T00:27:37.747Z,75.84
2023-01-21T00:27:49.735Z,75.68
2023-01-21T00:28:01.675Z,75.86
2023-01-21T00:28:13.586Z,75.56
2023-01-21T00:28:28.603Z,76.09
2023-01-21T00:28:44.222Z,75.84
2023-01-21T00:28:56.182Z,75.79
2023-01-21T00:29:08.255Z,75.42
2023-01-21T00:29:21.488Z,75.70
2023-01-21T00:29:33.451Z,76.01
2023-01-21T00:29:45.394Z,75.88
2023-01-21T00:29:57.360Z,76.04
2023-01-21T00:30:10.766Z,76.07
2023-01-21T00:30:22.742Z,76.33
2023-01-21T00:30:35.613Z,75.70
2023-01-21T00:30:47.698Z,76.28
2023-01-21T00:31:01.851Z,76.17
2023-01-21T00:31:14.007Z,75.88
2023-01-21T00:31:26.353Z,75.72
2023-01-21T00:31:38.972Z,76.23
2023-01-21T00:31:51.052Z,75.91
2023-01-21T00:32:03.013Z,76.17
2023-01-21T00:32:15.152Z,76.06
2023-01-21T00:32:27.080Z,75.62
2023-01-21T00:32:39.039Z,76.12
2023-01-21T00:32:52.316Z,76.18
2023-01-21T00:33:04.569Z,76.16
2023-01-21T00:33:16.506Z,75.90
2023-01-21T00:33:29.229Z,76.24
2023-01-21T00:33:41.190Z,76.31
2023-01-21T00:33:53.276Z,76.29
2023-01-21T00:34:05.340Z,75.94
2023-01-21T00:34:17.381Z,76.03
2023-01-21T00:34:29.388Z,76.11
2023-01-21T00:34:42.036Z,76.38
2023-01-21T00:34:54.165Z,76.29
2023-01-21T00:35:07.469Z,76.48
2023-01-21T00:35:19.473Z,76.49
2023-01-21T00:35:31.488Z,76.67
2023-01-21T00:35:43.506Z,76.85
2023-01-21T00:36:05.042Z,76.29
2023-01-21T00:36:18.533Z,76.76
2023-01-21T00:36:30.810Z,76.79
2023-01-21T00:36:42.867Z,76.57
2023-01-21T00:36:56.536Z,76.18
2023-01-21T00:37:08.609Z,76.27
2023-01-21T00:37:20.573Z,76.48
2023-01-21T00:37:32.627Z,76.75
2023-01-21T00:37:44.570Z,76.61
2023-01-21T00:37:56.562Z,76.75
2023-01-21T00:38:08.488Z,76.58
2023-01-21T00:38:20.395Z,76.49
2023-01-21T00:38:32.606Z,76.96
2023-01-21T00:38:48.091Z,76.63
2023-01-21T00:39:00.129Z,76.53
2023-01-21T00:39:12.236Z,76.50
2023-01-21T00:39:24.209Z,76.60
2023-01-21T00:39:36.138Z,76.99
2023-01-21T00:39:48.119Z,76.40
2023-01-21T00:40:00.165Z,76.86
2023-01-21T00:40:12.718Z,76.38
2023-01-21T00:40:24.798Z,76.55
2023-01-21T00:40:36.774Z,77.26
2023-01-21T00:40:49.078Z,77.10
2023-01-21T00:41:02.970Z,77.48
2023-01-21T00:41:15.049Z,77.11
2023-01-21T00:41:27.176Z,77.33
2023-01-21T00:41:39.269Z,77.46
2023-01-21T00:41:51.195Z,77.37
2023-01-21T00:42:04.450Z,77.45
2023-01-21T00:42:16.420Z,77.50
2023-01-21T00:42:28.652Z,77.34
2023-01-21T00:42:40.637Z,77.02
2023-01-21T00:42:52.549Z,77.56
2023-01-21T00:43:04.636Z,77.48
2023-01-21T00:43:16.539Z,77.06
2023-01-21T00:43:28.556Z,77.19
2023-01-21T00:43:41.999Z,77.75
2023-01-21T00:43:53.984Z,77.45
2023-01-21T00:44:06.005Z,77.32
2023-01-21T00:44:19.201Z,77.08
2023-01-21T00:44:31.120Z,77.64
2023-01-21T00:44:43.079Z,77.56
2023-01-21T00:44:57.508Z,77.58
2023-01-21T00:45:09.933Z,77.55
2023-01-21T00:45:21.912Z,77.16
2023-01-21T00:45:33.934Z,77.20
2023-01-21T00:45:45.937Z,77.49
2023-01-21T00:45:58.221Z,77.04
2023-01-21T00:46:11.126Z,77.68
2023-01-21T00:46:23.344Z,77.56
2023-01-21T00:46:35.399Z,77.48
2023-01-21T00:46:47.403Z,77.12
2023-01-21T00:46:59.360Z,77.42
2023-01-21T00:47:11.305Z,77.37
2023-01-21T00:47:24.354Z,76.81
2023-01-21T00:47:36.300Z,77.44
2023-01-21T00:47:48.501Z,77.19
2023-01-21T00:48:00.416Z,77.17
2023-01-21T00:48:12.322Z,77.34
2023-01-21T00:48:25.015Z,77.00
2023-01-21T00:48:37.649Z,77.48
2023-01-21T00:48:49.597Z,77.12
2023-01-21T00:49:01.662Z,77.10
2023-01-21T00:49:13.634Z,77.33
2023-01-21T00:49:25.591Z,77.48
2023-01-21T00:49:37.552Z,77.40
2023-01-21T00:49:49.484Z,77.56
2023-01-21T00:50:01.427Z,77.58
2023-01-21T00:50:13.389Z,76.77
2023-01-21T00:50:25.386Z,77.46
2023-01-21T00:50:37.322Z,77.45
2023-01-21T00:50:51.424Z,77.67
2023-01-21T00:51:03.915Z,77.39
2023-01-21T00:51:15.892Z,77.63
2023-01-21T00:51:27.972Z,77.52
2023-01-21T00:51:42.802Z,77.56
2023-01-21T00:51:54.753Z,77.45
2023-01-21T00:52:06.890Z,77.77
2023-01-21T00:52:18.884Z,77.87
2023-01-21T00:52:30.816Z,77.65
2023-01-21T00:52:42.787Z,77.30
2023-01-21T00:52:55.051Z,78.24
2023-01-21T00:53:06.948Z,77.73
2023-01-21T00:53:18.969Z,77.83
2023-01-21T00:53:33.629Z,77.71
2023-01-21T00:53:45.542Z,78.07
2023-01-21T00:53:57.498Z,77.91
2023-01-21T00:54:09.469Z,77.93
2023-01-21T00:54:21.372Z,77.55
2023-01-21T00:54:33.314Z,77.92
2023-01-21T00:54:45.344Z,78.14
2023-01-21T00:54:57.373Z,78.21
2023-01-21T00:55:09.532Z,78.22
2023-01-21T00:55:21.549Z,77.92
2023-01-21T00:55:33.589Z,78.38
2023-01-21T00:55:45.616Z,78.29
2023-01-21T00:56:06.044Z,77.59
2023-01-21T00:56:18.119Z,77.83
2023-01-21T00:56:30.109Z,77.95
2023-01-21T00:56:42.171Z,78.05
2023-01-21T00:56:54.319Z,78.02
2023-01-21T00:57:06.859Z,78.05
2023-01-21T00:57:19.000Z,77.98
2023-01-21T00:57:30.996Z,78.14
2023-01-21T00:57:42.954Z,78.43
2023-01-21T00:57:56.114Z,78.38
2023-01-21T00:58:08.167Z,78.22
2023-01-21T00:58:20.233Z,78.35
2023-01-21T00:58:32.833Z,78.23
2023-01-21T00:58:44.990Z,78.33
2023-01-21T00:58:57.122Z,78.42
2023-01-21T00:59:09.315Z,78.29
2023-01-21T00:59:21.261Z,78.20
2023-01-21T00:59:33.353Z,78.41
2023-01-21T00:59:45.289Z,78.22
2023-01-21T00:59:57.279Z,78.38
2023-01-21T01:00:12.975Z,78.30
2023-01-21T01:00:24.927Z,78.55
2023-01-21T01:00:36.851Z,78.33
2023-01-21T01:00:48.741Z,78.42
2023-01-21T01:01:05.966Z,78.21
2023-01-21T01:01:20.288Z,78.09
2023-01-21T01:01:37.331Z,78.11
2023-01-21T01:01:49.515Z,77.98
2023-01-21T01:02:01.492Z,78.45
2023-01-21T01:02:13.658Z,78.28
2023-01-21T01:02:25.648Z,78.47
2023-01-21T01:02:37.696Z,78.10
2023-01-21T01:02:49.826Z,78.01
2023-01-21T01:03:01.973Z,77.97
2023-01-21T01:03:14.032Z,78.14
2023-01-21T01:03:25.987Z,78.08
2023-01-21T01:03:39.466Z,78.49
2023-01-21T01:03:51.425Z,78.68
2023-01-21T01:04:03.455Z,78.70
2023-01-21T01:04:15.396Z,79.15
2023-01-21T01:04:27.377Z,78.46
2023-01-21T01:04:39.747Z,78.83
2023-01-21T01:04:51.727Z,78.88
2023-01-21T01:05:05.835Z,78.71
2023-01-21T01:05:19.364Z,78.79
2023-01-21T01:05:31.516Z,79.13
2023-01-21T01:05:43.467Z,78.82
2023-01-21T01:05:55.385Z,78.90
2023-01-21T01:06:09.871Z,78.69
2023-01-21T01:06:24.101Z,78.04
2023-01-21T01:06:36.031Z,78.21
2023-01-21T01:06:47.917Z,78.12
2023-01-21T01:06:59.821Z,78.41
2023-01-21T01:07:12.282Z,78.25
2023-01-21T01:07:24.324Z,77.94
2023-01-21T01:07:36.283Z,78.26
2023-01-21T01:07:50.152Z,78.48
2023-01-21T01:08:02.136Z,78.69
2023-01-21T01:08:14.103Z,78.51
2023-01-21T01:08:26.029Z,77.94
2023-01-21T01:08:38.139Z,78.21
2023-01-21T01:08:51.008Z,78.21
2023-01-21T01:09:03.591Z,77.97
2023-01-21T01:09:15.657Z,77.75
2023-01-21T01:09:27.691Z,78.27
2023-01-21T01:09:39.605Z,78.30
2023-01-21T01:09:51.673Z,78.01
2023-01-21T01:10:03.849Z,77.94
2023-01-21T01:10:19.691Z,78.61
2023-01-21T01:10:31.648Z,78.25
2023-01-21T01:10:43.582Z,78.27
2023-01-21T01:10:55.564Z,78.39
2023-01-21T01:11:07.634Z,78.36
2023-01-21T01:11:21.574Z,78.13
2023-01-21T01:11:36.463Z,77.93
2023-01-21T01:11:48.568Z,77.93
2023-01-21T01:12:00.527Z,78.21
2023-01-21T01:12:12.446Z,78.64
2023-01-21T01:12:24.468Z,78.48
2023-01-21T01:12:36.377Z,78.27
2023-01-21T01:12:48.315Z,79.02
2023-01-21T01:13:01.075Z,78.78
2023-01-21T01:13:13.058Z,78.27
2023-01-21T01:13:25.187Z,78.77
2023-01-21T01:13:37.416Z,78.43
2023-01-21T01:13:49.393Z,78.43
2023-01-21T01:14:01.353Z,78.98
2023-01-21T01:14:13.319Z,79.01
2023-01-21T01:14:25.527Z,78.81
2023-01-21T01:14:37.492Z,79.25
2023-01-21T01:14:49.435Z,78.93
2023-01-21T01:15:01.418Z,79.19
2023-01-21T01:15:13.414Z,79.38
2023-01-21T01:15:25.339Z,79.54
2023-01-21T01:15:37.321Z,79.01
2023-01-21T01:15:52.204Z,79.48
2023-01-21T01:16:05.125Z,79.28
2023-01-21T01:16:17.192Z,79.73
2023-01-21T01:16:29.158Z,79.38
2023-01-21T01:16:41.061Z,79.48
2023-01-21T01:16:52.974Z,79.59
2023-01-21T01:17:04.989Z,79.64
2023-01-21T01:17:16.997Z,79.47
2023-01-21T01:17:28.920Z,79.48
2023-01-21T01:17:40.853Z,79.38
2023-01-21T01:17:52.797Z,79.27
2023-01-21T01:18:04.764Z,79.19
2023-01-21T01:18:16.670Z,79.53
2023-01-21T01:18:30.739Z,79.27
2023-01-21T01:18:43.573Z,79.49
2023-01-21T01:18:55.648Z,79.29
2023-01-21T01:19:07.542Z,79.76
2023-01-21T01:19:19.478Z,79.46
2023-01-21T01:19:31.421Z,79.68
2023-01-21T01:19:43.395Z,79.64
2023-01-21T01:19:55.790Z,79.65
2023-01-21T01:20:09.007Z,79.96
2023-01-21T01:20:20.990Z,79.77
2023-01-21T01:20:32.929Z,80.22
2023-01-21T01:20:45.231Z,79.77
2023-01-21T01:20:57.220Z,80.08
2023-01-21T01:21:13.570Z,79.73
2023-01-21T01:21:25.859Z,79.46
2023-01-21T01:21:37.855Z,79.89
2023-01-21T01:21:49.777Z,79.89
2023-01-21T01:22:01.718Z,80.39
2023-01-21T01:22:13.674Z,80.23
2023-01-21T01:22:25.631Z,80.36
2023-01-21T01:22:37.672Z,80.37
2023-01-21T01:22:49.566Z,80.64
2023-01-21T01:23:01.534Z,80.64
2023-01-21T01:23:13.447Z,80.67
2023-01-21T01:23:25.670Z,81.10
2023-01-21T01:23:37.651Z,81.40
2023-01-21T01:23:52.354Z,81.30
2023-01-21T01:24:06.119Z,81.54
2023-01-21T01:24:18.152Z,81.60
2023-01-21T01:24:31.112Z,81.64
2023-01-21T01:24:43.065Z,81.80
2023-01-21T01:24:55.098Z,81.55
2023-01-21T01:25:07.353Z,82.29
2023-01-21T01:25:19.312Z,82.11
2023-01-21T01:25:31.255Z,82.07
2023-01-21T01:25:43.460Z,82.18
2023-01-21T01:26:00.414Z,82.20
2023-01-21T01:26:16.043Z,81.91
2023-01-21T01:26:28.153Z,82.16
2023-01-21T01:26:42.201Z,82.03
2023-01-21T01:26:54.357Z,82.12
2023-01-21T01:27:06.307Z,81.98
2023-01-21T01:27:18.277Z,82.00
2023-01-21T01:27:30.935Z,81.72
2023-01-21T01:27:42.868Z,82.07
2023-01-21T01:27:54.829Z,81.83
2023-01-21T01:28:06.819Z,81.83
2023-01-21T01:28:18.800Z,82.66
2023-01-21T01:28:31.932Z,82.51
2023-01-21T01:28:44.109Z,83.08
2023-01-21T01:28:56.091Z,83.05
2023-01-21T01:29:12.345Z,83.16
2023-01-21T01:29:24.304Z,83.16
2023-01-21T01:29:36.234Z,83.52
2023-01-21T01:29:48.566Z,83.50
2023-01-21T01:30:00.506Z,83.41
2023-01-21T01:30:12.788Z,83.21
2023-01-21T01:30:24.778Z,83.62
2023-01-21T01:30:36.855Z,83.84
2023-01-21T01:30:48.972Z,83.65
2023-01-21T01:31:03.958Z,84.24
2023-01-21T01:31:18.587Z,83.56
2023-01-21T01:31:33.488Z,83.54
2023-01-21T01:31:45.516Z,83.58
2023-01-21T01:31:57.520Z,83.78
2023-01-21T01:32:10.032Z,83.97
2023-01-21T01:32:21.950Z,83.62
2023-01-21T01:32:34.460Z,84.00
2023-01-21T01:32:46.394Z,83.91
2023-01-21T01:32:58.395Z,83.46
2023-01-21T01:33:10.363Z,83.37
2023-01-21T01:33:22.973Z,83.03
2023-01-21T01:33:35.224Z,83.06
2023-01-21T01:33:47.633Z,83.42
2023-01-21T01:33:59.660Z,83.09
2023-01-21T01:34:11.573Z,82.95
2023-01-21T01:34:23.576Z,83.41
2023-01-21T01:34:36.916Z,82.67
2023-01-21T01:34:48.830Z,82.33
2023-01-21T01:35:00.802Z,81.83
2023-01-21T01:35:12.772Z,82.18
2023-01-21T01:35:24.698Z,81.38
2023-01-21T01:35:38.700Z,81.89
2023-01-21T01:35:50.869Z,82.25
2023-01-21T01:36:12.523Z,82.15
2023-01-21T01:36:24.884Z,82.19
2023-01-21T01:36:39.767Z,82.26
2023-01-21T01:36:51.764Z,82.09
2023-01-21T01:37:04.058Z,82.59
2023-01-21T01:37:18.355Z,82.21
2023-01-21T01:37:30.269Z,82.37
2023-01-21T01:37:42.266Z,82.47
2023-01-21T01:37:54.370Z,82.33
2023-01-21T01:38:08.779Z,82.57
2023-01-21T01:38:25.395Z,81.90
2023-01-21T01:38:37.370Z,82.74
2023-01-21T01:38:50.217Z,82.23
2023-01-21T01:39:02.142Z,81.76
2023-01-21T01:39:14.068Z,82.15
2023-01-21T01:39:25.982Z,82.41
2023-01-21T01:39:37.913Z,82.19
2023-01-21T01:39:49.852Z,82.35
2023-01-21T01:40:01.950Z,81.89
2023-01-21T01:40:14.513Z,82.37
2023-01-21T01:40:26.727Z,81.79
2023-01-21T01:40:40.518Z,81.79
2023-01-21T01:40:53.096Z,82.09
2023-01-21T01:41:05.460Z,82.88
2023-01-21T01:41:22.869Z,82.78
2023-01-21T01:41:35.329Z,83.49
2023-01-21T01:41:47.303Z,83.60
2023-01-21T01:41:59.258Z,83.97
2023-01-21T01:42:15.663Z,83.67
2023-01-21T01:42:27.772Z,83.92
2023-01-21T01:42:40.080Z,83.38
2023-01-21T01:42:51.998Z,83.67
2023-01-21T01:43:12.936Z,83.26
2023-01-21T01:43:28.272Z,84.39
2023-01-21T01:44:18.983Z,84.50
2023-01-21T01:44:58.408Z,85.58
2023-01-21T01:45:21.674Z,85.50
2023-01-21T01:45:33.805Z,85.42
2023-01-21T01:45:48.009Z,85.45
2023-01-21T01:45:59.965Z,85.49
2023-01-21T01:46:11.929Z,85.16
2023-01-21T01:46:26.384Z,85.18
2023-01-21T01:46:38.397Z,84.91
2023-01-21T01:46:50.871Z,84.92
2023-01-21T01:47:04.416Z,84.90
2023-01-21T01:47:16.455Z,84.79
2023-01-21T01:47:37.359Z,84.41
2023-01-21T01:47:59.906Z,84.46
2023-01-21T01:48:16.516Z,84.54
2023-01-21T01:48:32.267Z,83.68
2023-01-21T01:48:53.637Z,82.99
2023-01-21T01:49:08.750Z,83.16
2023-01-21T01:49:21.910Z,82.72
2023-01-21T01:49:34.307Z,83.21
2023-01-21T01:49:47.982Z,83.20
2023-01-21T01:50:01.633Z,83.39
2023-01-21T01:50:18.152Z,82.90
2023-01-21T01:50:38.041Z,83.17
2023-01-21T01:50:50.676Z,83.22
2023-01-21T01:51:07.538Z,83.09
2023-01-21T01:51:26.714Z,83.31
2023-01-21T01:51:47.969Z,83.07
2023-01-21T01:52:05.068Z,83.12
2023-01-21T01:52:19.844Z,83.26
2023-01-21T01:52:32.608Z,83.61
2023-01-21T01:52:46.125Z,83.31
2023-01-21T01:53:00.922Z,83.49
2023-01-21T01:53:15.611Z,83.07
2023-01-21T01:53:31.127Z,83.50
2023-01-21T01:53:46.737Z,82.70
2023-01-21T01:54:00.017Z,82.47
2023-01-21T01:54:17.037Z,82.37
2023-01-21T01:54:36.508Z,82.62
2023-01-21T01:54:53.402Z,82.69
2023-01-21T01:55:07.442Z,83.10
2023-01-21T01:55:19.982Z,82.98
2023-01-21T01:55:35.823Z,83.61
2023-01-21T01:55:49.123Z,83.47
2023-01-21T01:56:01.993Z,83.42
2023-01-21T01:56:15.909Z,83.42
2023-01-21T01:56:31.527Z,83.41
2023-01-21T01:56:47.943Z,83.45
2023-01-21T01:57:03.037Z,83.39
2023-01-21T01:57:18.168Z,83.43
2023-01-21T01:57:38.365Z,83.57
2023-01-21T01:57:53.512Z,83.38
2023-01-21T01:58:11.062Z,83.34
2023-01-21T01:58:23.200Z,83.33
2023-01-21T01:58:38.089Z,82.95
2023-01-21T01:58:50.317Z,83.43
2023-01-21T01:59:02.412Z,83.28
2023-01-21T01:59:14.409Z,83.41
2023-01-21T01:59:27.769Z,83.86
2023-01-21T01:59:40.869Z,83.88
2023-01-21T01:59:52.908Z,84.13
2023-01-21T02:00:07.620Z,84.36
2023-01-21T02:00:20.285Z,84.39
2023-01-21T02:00:32.299Z,84.22
2023-01-21T02:00:44.626Z,84.65
2023-01-21T02:00:57.472Z,84.43
2023-01-21T02:01:09.401Z,84.76
2023-01-21T02:01:22.183Z,84.23
2023-01-21T02:01:34.220Z,84.54
2023-01-21T02:01:46.488Z,84.24
2023-01-21T02:02:03.498Z,84.17
2023-01-21T02:02:18.002Z,84.47
2023-01-21T02:02:31.665Z,84.49
2023-01-21T02:03:04.495Z,84.52
2023-01-21T02:03:38.016Z,84.71
2023-01-21T02:03:58.405Z,84.79
2023-01-21T02:04:15.700Z,84.04
2023-01-21T02:04:31.717Z,84.37
2023-01-21T02:05:00.121Z,84.19
2023-01-21T02:05:12.036Z,83.61
2023-01-21T02:05:23.957Z,83.58
2023-01-21T02:05:37.240Z,83.42
2023-01-21T02:05:50.772Z,83.56
2023-01-21T02:06:02.920Z,83.14
2023-01-21T02:06:17.007Z,82.80
2023-01-21T02:06:29.131Z,83.28
2023-01-21T02:06:42.709Z,82.76
2023-01-21T02:06:56.890Z,82.69
2023-01-21T02:07:09.230Z,82.72
2023-01-21T02:07:23.617Z,82.82
2023-01-21T02:07:40.062Z,83.44
2023-01-21T02:07:55.135Z,82.88
2023-01-21T02:08:08.611Z,83.40
2023-01-21T02:08:21.954Z,83.40
2023-01-21T02:08:36.159Z,83.63
2023-01-21T02:08:48.591Z,83.76
2023-01-21T02:09:00.504Z,83.75
2023-01-21T02:09:12.541Z,83.62
2023-01-21T02:09:29.569Z,83.02
2023-01-21T02:09:41.566Z,83.45
2023-01-21T02:09:54.284Z,83.32
2023-01-21T02:10:12.046Z,82.97
2023-01-21T02:10:24.011Z,83.48
2023-01-21T02:10:36.540Z,83.43
2023-01-21T02:10:49.040Z,83.12
2023-01-21T02:11:02.553Z,83.08
2023-01-21T02:11:16.944Z,83.13
2023-01-21T02:11:28.859Z,83.04
2023-01-21T02:11:41.108Z,82.60
2023-01-21T02:11:53.230Z,82.91
2023-01-21T02:12:06.466Z,82.65
2023-01-21T02:12:22.041Z,82.87
2023-01-21T02:12:36.178Z,82.61
2023-01-21T02:12:48.203Z,82.66
2023-01-21T02:13:00.777Z,82.94
2023-01-21T02:13:12.799Z,82.75
2023-01-21T02:13:27.297Z,82.27
2023-01-21T02:13:42.231Z,82.48
2023-01-21T02:13:57.749Z,82.71
2023-01-21T02:14:09.857Z,82.60
2023-01-21T02:14:22.031Z,82.97
2023-01-21T02:14:42.634Z,82.78
2023-01-21T02:14:54.806Z,82.28
2023-01-21T02:15:07.924Z,82.24
2023-01-21T02:15:20.528Z,81.99
2023-01-21T02:15:56.619Z,81.73
2023-01-21T02:16:34.889Z,81.65
2023-01-21T02:17:17.498Z,81.78
2023-01-21T02:17:38.171Z,82.31
2023-01-21T02:18:25.327Z,81.83
2023-01-21T02:19:14.692Z,82.19
2023-01-21T02:19:29.196Z,81.85
2023-01-21T02:20:07.005Z,81.70
2023-01-21T02:20:40.421Z,81.43
2023-01-21T02:21:08.305Z,81.97
2023-01-21T02:21:40.143Z,80.89
2023-01-21T02:22:16.145Z,80.76
2023-01-21T02:22:55.812Z,80.93
2023-01-21T02:23:23.735Z,81.41
2023-01-21T02:24:02.711Z,81.87
2023-01-21T02:24:35.815Z,81.69
2023-01-21T02:25:32.434Z,81.97
2023-01-21T02:25:47.090Z,81.25
2023-01-21T02:26:25.258Z,82.10
2023-01-21T02:26:40.099Z,81.62
2023-01-21T02:27:08.374Z,81.82
2023-01-21T02:27:32.956Z,82.52
2023-01-21T02:28:02.902Z,82.40
2023-01-21T02:28:20.361Z,82.74
2023-01-21T02:28:56.804Z,82.78
2023-01-21T02:29:33.192Z,82.69
2023-01-21T02:29:45.104Z,83.04
2023-01-21T02:30:19.855Z,82.92
2023-01-21T02:30:53.572Z,82.90
2023-01-21T02:31:24.349Z,82.92
2023-01-21T02:31:54.878Z,82.28
2023-01-21T02:32:18.566Z,82.49
2023-01-21T02:32:49.394Z,82.15
2023-01-21T02:33:22.870Z,81.99
2023-01-21T02:33:54.053Z,82.55
2023-01-21T02:34:14.726Z,82.00
2023-01-21T02:34:29.271Z,82.10
2023-01-21T02:34:53.333Z,82.14
2023-01-21T02:35:14.218Z,82.07
2023-01-21T02:35:42.226Z,82.45
2023-01-21T02:36:04.989Z,81.64
2023-01-21T02:36:41.795Z,81.45
2023-01-21T02:37:17.286Z,82.03
2023-01-21T02:37:53.400Z,82.39
2023-01-21T02:38:17.555Z,82.82
2023-01-21T02:38:45.764Z,82.66
2023-01-21T02:39:18.555Z,82.91
2023-01-21T02:39:59.077Z,82.79
2023-01-21T02:40:21.297Z,82.90
2023-01-21T02:40:43.524Z,82.63
2023-01-21T02:41:30.781Z,82.32
2023-01-21T02:42:01.424Z,82.25
2023-01-21T02:42:25.114Z,82.04
2023-01-21T02:42:46.880Z,81.39
2023-01-21T02:43:12.362Z,81.97
2023-01-21T02:43:46.085Z,81.87
2023-01-21T02:44:32.667Z,82.06
2023-01-21T02:44:53.991Z,81.77
2023-01-21T02:45:11.568Z,82.11
2023-01-21T02:45:23.647Z,82.12
2023-01-21T02:45:46.655Z,81.83
2023-01-21T02:46:07.169Z,81.56
2023-01-21T02:46:37.373Z,82.04
2023-01-21T02:46:59.156Z,81.42
2023-01-21T02:47:37.498Z,81.89
2023-01-21T02:48:13.577Z,81.42
2023-01-21T02:48:58.146Z,82.30
2023-01-21T02:49:59.481Z,82.12
2023-01-21T02:50:26.330Z,82.43
2023-01-21T02:50:58.906Z,81.56
2023-01-21T02:51:13.175Z,82.03
2023-01-21T02:51:25.361Z,82.23
2023-01-21T02:51:37.275Z,81.57
2023-01-21T02:51:49.585Z,81.96
2023-01-21T02:52:01.575Z,81.91
2023-01-21T02:52:20.909Z,82.02
2023-01-21T02:52:33.049Z,81.67
2023-01-21T02:52:45.039Z,81.51
2023-01-21T02:52:58.487Z,82.01
2023-01-21T02:53:39.424Z,81.99
2023-01-21T02:53:51.419Z,81.67
2023-01-21T02:54:41.361Z,81.52
2023-01-21T02:54:56.097Z,81.62
2023-01-21T02:55:16.416Z,81.29
2023-01-21T02:55:38.347Z,81.17
2023-01-21T02:55:50.739Z,81.69
2023-01-21T02:56:05.345Z,82.06
2023-01-21T02:56:21.819Z,81.59
2023-01-21T02:56:33.761Z,81.61
2023-01-21T02:56:45.825Z,82.05
2023-01-21T02:56:57.815Z,81.36
2023-01-21T02:57:14.333Z,81.81
2023-01-21T02:57:41.947Z,81.48
2023-01-21T02:57:58.902Z,81.18
2023-01-21T02:58:14.851Z,80.79
2023-01-21T02:58:33.432Z,81.29
2023-01-21T02:58:49.959Z,81.32
2023-01-21T02:59:04.785Z,81.50
2023-01-21T02:59:16.767Z,81.34
2023-01-21T02:59:28.689Z,81.53
2023-01-21T02:59:46.799Z,81.31
2023-01-21T03:00:00.709Z,81.39
2023-01-21T03:00:26.569Z,81.50
2023-01-21T03:00:54.576Z,81.35
2023-01-21T03:01:11.827Z,81.87
2023-01-21T03:01:36.152Z,81.41
2023-01-21T03:02:08.297Z,81.36
2023-01-21T03:02:45.274Z,81.34
2023-01-21T03:03:12.190Z,81.05
2023-01-21T03:03:40.384Z,81.29
2023-01-21T03:04:14.776Z,81.20
2023-01-21T03:04:52.541Z,81.60
2023-01-21T03:05:13.063Z,81.16
2023-01-21T03:05:35.328Z,81.44
2023-01-21T03:05:57.713Z,81.21
2023-01-21T03:06:30.742Z,81.41
2023-01-21T03:07:22.467Z,80.88
2023-01-21T03:07:41.465Z,81.23
2023-01-21T03:08:02.544Z,81.30
2023-01-21T03:08:32.359Z,81.57
2023-01-21T03:08:55.881Z,81.12
2023-01-21T03:09:25.107Z,81.52
2023-01-21T03:09:37.332Z,81.04
2023-01-21T03:09:49.665Z,81.04
2023-01-21T03:10:13.845Z,81.16
2023-01-21T03:10:42.752Z,82.30
2023-01-21T03:10:54.593Z,81.97
2023-01-21T03:11:15.396Z,82.22
2023-01-21T03:11:28.247Z,82.00
2023-01-21T03:11:45.497Z,81.87
2023-01-21T03:12:09.038Z,81.64
2023-01-21T03:12:44.959Z,81.85
2023-01-21T03:13:05.377Z,81.95
2023-01-21T03:14:00.901Z,81.72
2023-01-21T03:14:37.385Z,81.38
2023-01-21T03:15:19.318Z,81.21
2023-01-21T03:16:04.008Z,81.87
2023-01-21T03:16:40.538Z,81.65
2023-01-21T03:17:18.439Z,82.15
2023-01-21T03:17:44.958Z,82.43
2023-01-21T03:18:18.578Z,81.98
2023-01-21T03:18:38.472Z,82.27
2023-01-21T03:18:56.322Z,82.07
2023-01-21T03:19:13.845Z,82.08
2023-01-21T03:19:38.676Z,82.06
2023-01-21T03:19:56.768Z,81.97
2023-01-21T03:20:12.969Z,82.22
2023-01-21T03:20:30.638Z,81.55
2023-01-21T03:20:47.560Z,81.96
2023-01-21T03:21:04.332Z,81.59
2023-01-21T03:21:23.828Z,81.25